createdAt,value
2023-02-07T00:00:10.132Z,816.78
2023-02-07T00:01:10.115Z,816.78
2023-02-07T00:02:10.168Z,816.73
2023-02-07T00:03:10.171Z,816.71
2023-02-07T00:04:10.123Z,816.71
2023-02-07T00:05:10.124Z,816.70
2023-02-07T00:06:10.134Z,816.64
2023-02-07T00:07:10.117Z,816.64
2023-02-07T00:08:10.131Z,816.64
2023-02-07T00:09:10.122Z,816.61
2023-02-07T00:10:10.133Z,816.58
2023-02-07T00:11:10.119Z,816.56
2023-02-07T00:12:10.125Z,816.57
2023-02-07T00:13:10.120Z,816.57
2023-02-07T00:14:10.128Z,816.49
2023-02-07T00:15:10.123Z,816.47
2023-02-07T00:16:10.156Z,816.47
2023-02-07T00:17:10.121Z,816.46
2023-02-07T00:18:10.152Z,816.47
2023-02-07T00:19:10.125Z,816.52
2023-02-07T00:20:10.132Z,816.56
2023-02-07T00:21:10.126Z,816.51
2023-02-07T00:22:10.129Z,816.56
2023-02-07T00:23:10.126Z,816.56
2023-02-07T00:24:10.132Z,816.52
2023-02-07T00:25:10.126Z,816.56
2023-02-07T00:26:10.132Z,816.54
2023-02-07T00:27:10.129Z,816.54
2023-02-07T00:28:10.259Z,816.55
2023-02-07T00:29:10.131Z,816.58
2023-02-07T00:30:10.137Z,816.55
2023-02-07T00:31:10.381Z,816.56
2023-02-07T00:32:10.138Z,816.58
2023-02-07T00:33:10.140Z,816.58
2023-02-07T00:34:10.162Z,816.57
2023-02-07T00:35:10.141Z,816.59
2023-02-07T00:36:10.154Z,816.64
2023-02-07T00:37:10.141Z,816.65
2023-02-07T00:38:10.147Z,816.67
2023-02-07T00:39:10.263Z,816.65
2023-02-07T00:40:10.146Z,816.66
2023-02-07T00:41:10.153Z,816.69
2023-02-07T00:42:10.152Z,816.74
2023-02-07T00:43:12.905Z,816.77
2023-02-07T00:44:10.156Z,816.76
2023-02-07T00:45:10.150Z,816.78
2023-02-07T00:46:10.206Z,816.81
2023-02-07T00:47:10.154Z,816.84
2023-02-07T00:48:10.156Z,816.81
2023-02-07T00:49:10.159Z,816.80
2023-02-07T00:50:10.183Z,816.78
2023-02-07T00:51:10.159Z,816.78
2023-02-07T00:52:10.167Z,816.76
2023-02-07T00:53:10.163Z,816.76
2023-02-07T00:54:10.166Z,816.75
2023-02-07T00:55:10.162Z,816.75
2023-02-07T00:56:10.167Z,816.76
2023-02-07T00:57:10.163Z,816.75
2023-02-07T00:58:10.272Z,816.76
2023-02-07T00:59:10.168Z,816.75
2023-02-07T01:00:10.196Z,816.86
2023-02-07T01:01:10.199Z,816.86
2023-02-07T01:02:10.175Z,816.87
2023-02-07T01:03:10.178Z,816.90
2023-02-07T01:04:10.176Z,816.92
2023-02-07T01:05:10.175Z,816.98
2023-02-07T01:06:10.204Z,816.98
2023-02-07T01:07:10.183Z,816.94
2023-02-07T01:08:10.183Z,816.98
2023-02-07T01:09:10.182Z,817.03
2023-02-07T01:10:10.186Z,817.05
2023-02-07T01:11:10.183Z,817.11
2023-02-07T01:12:10.190Z,817.08
2023-02-07T01:13:10.189Z,817.15
2023-02-07T01:14:10.191Z,817.18
2023-02-07T01:15:10.191Z,817.17
2023-02-07T01:16:10.259Z,817.21
2023-02-07T01:17:10.192Z,817.22
2023-02-07T01:18:10.194Z,817.25
2023-02-07T01:19:10.191Z,817.28
2023-02-07T01:20:10.200Z,817.36
2023-02-07T01:21:10.192Z,817.38
2023-02-07T01:22:10.220Z,817.40
2023-02-07T01:23:10.195Z,817.40
2023-02-07T01:24:10.204Z,817.44
2023-02-07T01:25:10.198Z,817.44
2023-02-07T01:26:10.199Z,817.42
2023-02-07T01:27:10.201Z,817.40
2023-02-07T01:28:10.261Z,817.43
2023-02-07T01:29:10.215Z,817.41
2023-02-07T01:30:10.207Z,817.37
2023-02-07T01:31:10.361Z,817.35
2023-02-07T01:32:10.211Z,817.42
2023-02-07T01:33:10.206Z,817.46
2023-02-07T01:34:10.210Z,817.45
2023-02-07T01:35:10.208Z,817.47
2023-02-07T01:36:10.218Z,817.50
2023-02-07T01:37:10.207Z,817.50
2023-02-07T01:38:10.239Z,817.53
2023-02-07T01:39:10.211Z,817.51
2023-02-07T01:40:10.224Z,817.58
2023-02-07T01:41:10.213Z,817.56
2023-02-07T01:42:10.220Z,817.61
2023-02-07T01:43:10.217Z,817.65
2023-02-07T01:44:10.216Z,817.66
2023-02-07T01:45:10.216Z,817.65
2023-02-07T01:46:10.255Z,817.66
2023-02-07T01:47:10.216Z,817.70
2023-02-07T01:48:10.236Z,817.72
2023-02-07T01:49:10.222Z,817.75
2023-02-07T01:50:10.221Z,817.76
2023-02-07T01:51:10.221Z,817.80
2023-02-07T01:52:10.223Z,817.78
2023-02-07T01:53:10.224Z,817.82
2023-02-07T01:54:10.256Z,817.83
2023-02-07T01:55:10.226Z,817.82
2023-02-07T01:56:13.424Z,817.81
2023-02-07T01:57:10.228Z,817.81
2023-02-07T01:58:10.232Z,817.79
2023-02-07T01:59:10.236Z,817.83
2023-02-07T02:00:10.229Z,817.83
2023-02-07T02:01:10.250Z,817.80
2023-02-07T02:02:10.231Z,817.81
2023-02-07T02:03:10.232Z,817.86
2023-02-07T02:04:10.240Z,817.82
2023-02-07T02:05:10.328Z,817.86
2023-02-07T02:06:10.236Z,817.86
2023-02-07T02:07:10.253Z,817.88
2023-02-07T02:08:10.246Z,817.85
2023-02-07T02:09:10.233Z,817.86
2023-02-07T02:10:10.263Z,817.91
2023-02-07T02:11:10.237Z,817.88
2023-02-07T02:12:10.242Z,817.89
2023-02-07T02:13:10.257Z,817.87
2023-02-07T02:14:10.245Z,817.87
2023-02-07T02:15:10.238Z,817.88
2023-02-07T02:16:10.297Z,817.91
2023-02-07T02:17:10.238Z,817.87
2023-02-07T02:18:10.256Z,817.83
2023-02-07T02:19:10.243Z,817.90
2023-02-07T02:20:10.245Z,817.87
2023-02-07T02:21:10.247Z,817.89
2023-02-07T02:22:10.246Z,817.92
2023-02-07T02:23:10.245Z,817.91
2023-02-07T02:24:10.252Z,817.93
2023-02-07T02:25:10.258Z,817.93
2023-02-07T02:26:10.270Z,817.92
2023-02-07T02:27:10.252Z,817.99
2023-02-07T02:28:10.304Z,818.01
2023-02-07T02:29:10.245Z,818.01
2023-02-07T02:30:10.257Z,818.02
2023-02-07T02:31:10.347Z,818.03
2023-02-07T02:32:10.266Z,818.00
2023-02-07T02:33:10.260Z,818.02
2023-02-07T02:34:10.254Z,818.04
2023-02-07T02:35:10.254Z,818.03
2023-02-07T02:36:10.255Z,818.02
2023-02-07T02:37:10.251Z,818.07
2023-02-07T02:38:10.252Z,818.04
2023-02-07T02:39:10.257Z,818.04
2023-02-07T02:40:10.271Z,818.06
2023-02-07T02:41:10.253Z,818.06
2023-02-07T02:42:10.279Z,818.07
2023-02-07T02:43:10.254Z,818.10
2023-02-07T02:44:10.260Z,818.12
2023-02-07T02:45:10.270Z,818.13
2023-02-07T02:46:10.294Z,818.14
2023-02-07T02:47:10.261Z,818.18
2023-02-07T02:48:10.259Z,818.14
2023-02-07T02:49:10.261Z,818.14
2023-02-07T02:50:10.272Z,818.14
2023-02-07T02:51:10.260Z,818.11
2023-02-07T02:52:10.262Z,818.14
2023-02-07T02:53:10.275Z,818.13
2023-02-07T02:54:10.266Z,818.13
2023-02-07T02:55:10.268Z,818.15
2023-02-07T02:56:10.265Z,818.17
2023-02-07T02:57:10.268Z,818.21
2023-02-07T02:58:10.285Z,818.25
2023-02-07T02:59:10.268Z,818.25
2023-02-07T03:00:10.274Z,818.28
2023-02-07T03:01:10.277Z,818.27
2023-02-07T03:02:10.272Z,818.23
2023-02-07T03:03:10.302Z,818.24
2023-02-07T03:04:10.273Z,818.27
2023-02-07T03:05:10.300Z,818.28
2023-02-07T03:06:10.265Z,818.23
2023-02-07T03:07:10.268Z,818.21
2023-02-07T03:08:10.271Z,818.22
2023-02-07T03:09:10.271Z,818.27
2023-02-07T03:10:10.269Z,818.32
2023-02-07T03:11:10.270Z,818.31
2023-02-07T03:12:10.267Z,818.30
2023-02-07T03:13:10.269Z,818.26
2023-02-07T03:14:10.298Z,818.27
2023-02-07T03:15:10.273Z,818.22
2023-02-07T03:16:10.284Z,818.25
2023-02-07T03:17:10.272Z,818.29
2023-02-07T03:18:10.266Z,818.36
2023-02-07T03:19:10.275Z,818.44
2023-02-07T03:20:10.269Z,818.46
2023-02-07T03:21:10.270Z,818.48
2023-02-07T03:22:10.266Z,818.49
2023-02-07T03:23:10.280Z,818.50
2023-02-07T03:24:10.267Z,818.48
2023-02-07T03:25:10.277Z,818.48
2023-02-07T03:26:10.265Z,818.50
2023-02-07T03:27:10.271Z,818.53
2023-02-07T03:28:10.288Z,818.56
2023-02-07T03:29:10.282Z,818.57
2023-02-07T03:30:10.295Z,818.57
2023-02-07T03:31:10.349Z,818.53
2023-02-07T03:32:10.265Z,818.54
2023-02-07T03:33:10.291Z,818.56
2023-02-07T03:34:10.275Z,818.65
2023-02-07T03:35:10.266Z,818.63
2023-02-07T03:36:10.266Z,818.67
2023-02-07T03:37:10.268Z,818.67
2023-02-07T03:38:10.264Z,818.66
2023-02-07T03:39:10.296Z,818.62
2023-02-07T03:40:10.266Z,818.60
2023-02-07T03:41:10.285Z,818.65
2023-02-07T03:42:10.263Z,818.64
2023-02-07T03:43:10.267Z,818.65
2023-02-07T03:44:10.262Z,818.65
2023-02-07T03:45:10.267Z,818.64
2023-02-07T03:46:10.375Z,818.63
2023-02-07T03:47:10.265Z,818.66
2023-02-07T03:48:10.264Z,818.65
2023-02-07T03:49:10.266Z,818.67
2023-02-07T03:50:10.272Z,818.71
2023-02-07T03:51:10.267Z,818.73
2023-02-07T03:52:10.263Z,818.74
2023-02-07T03:53:10.275Z,818.73
2023-02-07T03:54:10.266Z,818.77
2023-02-07T03:55:10.271Z,818.75
2023-02-07T03:56:10.262Z,818.75
2023-02-07T03:57:10.269Z,818.76
2023-02-07T03:58:10.264Z,818.76
2023-02-07T03:59:10.267Z,818.79
2023-02-07T04:00:10.263Z,818.76
2023-02-07T04:01:10.301Z,818.78
2023-02-07T04:02:10.334Z,818.81
2023-02-07T04:03:10.276Z,818.86
2023-02-07T04:04:10.262Z,818.88
2023-02-07T04:05:10.372Z,818.90
2023-02-07T04:06:10.266Z,818.96
2023-02-07T04:07:10.271Z,818.96
2023-02-07T04:08:10.278Z,818.96
2023-02-07T04:09:11.885Z,818.97
2023-02-07T04:10:10.265Z,818.95
2023-02-07T04:11:10.281Z,818.96
2023-02-07T04:12:10.265Z,818.98
2023-02-07T04:13:10.268Z,819.00
2023-02-07T04:14:10.268Z,819.01
2023-02-07T04:15:10.270Z,818.99
2023-02-07T04:16:10.354Z,819.03
2023-02-07T04:17:10.271Z,819.02
2023-02-07T04:18:10.321Z,819.07
2023-02-07T04:19:10.265Z,819.07
2023-02-07T04:20:10.287Z,819.06
2023-02-07T04:21:10.269Z,819.11
2023-02-07T04:22:10.263Z,819.10
2023-02-07T04:23:10.271Z,819.12
2023-02-07T04:24:10.289Z,819.15
2023-02-07T04:25:10.279Z,819.20
2023-02-07T04:26:10.266Z,819.22
2023-02-07T04:27:10.266Z,819.21
2023-02-07T04:28:10.292Z,819.20
2023-02-07T04:29:10.264Z,819.23
2023-02-07T04:30:10.259Z,819.27
2023-02-07T04:31:10.267Z,819.31
2023-02-07T04:32:10.261Z,819.30
2023-02-07T04:33:10.268Z,819.30
2023-02-07T04:34:10.287Z,819.29
2023-02-07T04:35:10.265Z,819.33
2023-02-07T04:36:10.258Z,819.37
2023-02-07T04:37:10.273Z,819.35
2023-02-07T04:38:10.265Z,819.36
2023-02-07T04:39:10.286Z,819.36
2023-02-07T04:40:10.258Z,819.43
2023-02-07T04:41:10.270Z,819.46
2023-02-07T04:42:10.261Z,819.48
2023-02-07T04:43:10.258Z,819.48
2023-02-07T04:44:10.258Z,819.50
2023-02-07T04:45:10.259Z,819.45
2023-02-07T04:46:10.336Z,819.49
2023-02-07T04:47:10.261Z,819.50
2023-02-07T04:48:10.262Z,819.49
2023-02-07T04:49:10.256Z,819.52
2023-02-07T04:50:10.284Z,819.57
2023-02-07T04:51:10.257Z,819.56
2023-02-07T04:52:10.256Z,819.60
2023-02-07T04:53:10.255Z,819.59
2023-02-07T04:54:10.251Z,819.68
2023-02-07T04:55:10.261Z,819.64
2023-02-07T04:56:10.253Z,819.71
2023-02-07T04:57:10.262Z,819.73
2023-02-07T04:58:10.255Z,819.72
2023-02-07T04:59:10.255Z,819.70
2023-02-07T05:00:10.250Z,819.77
2023-02-07T05:01:10.283Z,819.78
2023-02-07T05:02:10.277Z,819.81
2023-02-07T05:03:10.259Z,819.85
2023-02-07T05:04:10.298Z,819.85
2023-02-07T05:05:10.255Z,819.87
2023-02-07T05:06:10.370Z,819.89
2023-02-07T05:07:10.264Z,819.91
2023-02-07T05:08:10.250Z,819.95
2023-02-07T05:09:10.258Z,819.96
2023-02-07T05:10:10.261Z,819.98
2023-02-07T05:11:10.252Z,819.98
2023-02-07T05:12:10.253Z,820.02
2023-02-07T05:13:10.272Z,820.04
2023-02-07T05:14:10.251Z,820.04
2023-02-07T05:15:10.252Z,820.05
2023-02-07T05:16:10.251Z,820.06
2023-02-07T05:17:10.254Z,820.06
2023-02-07T05:18:10.253Z,820.11
2023-02-07T05:19:10.253Z,820.12
2023-02-07T05:20:10.250Z,820.15
2023-02-07T05:21:10.353Z,820.15
2023-02-07T05:22:10.273Z,820.15
2023-02-07T05:23:10.257Z,820.19
2023-02-07T05:24:10.254Z,820.20
2023-02-07T05:25:10.249Z,820.25
2023-02-07T05:26:10.247Z,820.28
2023-02-07T05:27:10.254Z,820.29
2023-02-07T05:28:10.343Z,820.33
2023-02-07T05:29:10.248Z,820.35
2023-02-07T05:30:10.245Z,820.40
2023-02-07T05:31:10.396Z,820.38
2023-02-07T05:32:10.251Z,820.43
2023-02-07T05:33:10.249Z,820.42
2023-02-07T05:34:10.249Z,820.43
2023-02-07T05:35:10.245Z,820.44
2023-02-07T05:36:10.244Z,820.43
2023-02-07T05:37:10.245Z,820.46
2023-02-07T05:38:10.263Z,820.49
2023-02-07T05:39:10.251Z,820.45
2023-02-07T05:40:10.239Z,820.54
2023-02-07T05:41:10.241Z,820.56
2023-02-07T05:42:10.249Z,820.60
2023-02-07T05:43:10.268Z,820.63
2023-02-07T05:44:10.236Z,820.65
2023-02-07T05:45:10.238Z,820.67
2023-02-07T05:46:10.248Z,820.65
2023-02-07T05:47:10.239Z,820.62
2023-02-07T05:48:10.235Z,820.63
2023-02-07T05:49:10.240Z,820.71
2023-02-07T05:50:10.237Z,820.73
2023-02-07T05:51:10.237Z,820.72
2023-02-07T05:52:10.231Z,820.75
2023-02-07T05:53:10.234Z,820.78
2023-02-07T05:54:10.253Z,820.78
2023-02-07T05:55:10.243Z,820.78
2023-02-07T05:56:10.228Z,820.77
2023-02-07T05:57:10.237Z,820.78
2023-02-07T05:58:10.229Z,820.84
2023-02-07T05:59:10.242Z,820.85
2023-02-07T06:00:10.231Z,820.86
2023-02-07T06:01:10.228Z,820.88
2023-02-07T06:02:10.248Z,820.89
2023-02-07T06:03:10.284Z,820.92
2023-02-07T06:04:10.227Z,820.98
2023-02-07T06:05:10.226Z,821.00
2023-02-07T06:06:10.223Z,821.01
2023-02-07T06:07:10.238Z,821.03
2023-02-07T06:08:10.228Z,821.07
2023-02-07T06:09:10.227Z,821.11
2023-02-07T06:10:10.241Z,821.18
2023-02-07T06:11:10.223Z,821.18
2023-02-07T06:12:10.219Z,821.18
2023-02-07T06:13:10.231Z,821.21
2023-02-07T06:14:10.222Z,821.19
2023-02-07T06:15:10.235Z,821.25
2023-02-07T06:16:10.226Z,821.32
2023-02-07T06:17:10.222Z,821.32
2023-02-07T06:18:10.213Z,821.31
2023-02-07T06:19:10.219Z,821.36
2023-02-07T06:20:10.215Z,821.36
2023-02-07T06:21:10.215Z,821.41
2023-02-07T06:22:10.212Z,821.40
2023-02-07T06:23:10.213Z,821.42
2023-02-07T06:24:10.211Z,821.41
2023-02-07T06:25:10.469Z,821.47
2023-02-07T06:26:10.236Z,821.52
2023-02-07T06:27:10.222Z,821.52
2023-02-07T06:28:10.226Z,821.56
2023-02-07T06:29:10.211Z,821.62
2023-02-07T06:30:10.225Z,821.61
2023-02-07T06:31:10.343Z,821.64
2023-02-07T06:32:10.206Z,821.67
2023-02-07T06:33:10.215Z,821.70
2023-02-07T06:34:10.207Z,821.70
2023-02-07T06:35:10.221Z,821.69
2023-02-07T06:36:10.206Z,821.76
2023-02-07T06:37:10.211Z,821.78
2023-02-07T06:38:10.205Z,821.84
2023-02-07T06:39:10.220Z,821.84
2023-02-07T06:40:10.219Z,821.84
2023-02-07T06:41:10.210Z,821.86
2023-02-07T06:42:10.229Z,821.88
2023-02-07T06:43:10.214Z,821.92
2023-02-07T06:44:10.207Z,821.93
2023-02-07T06:45:10.223Z,821.93
2023-02-07T06:46:10.204Z,821.95
2023-02-07T06:47:10.203Z,821.98
2023-02-07T06:48:10.201Z,822.01
2023-02-07T06:49:10.203Z,822.06
2023-02-07T06:50:10.203Z,821.99
2023-02-07T06:51:10.201Z,822.05
2023-02-07T06:52:10.198Z,822.06
2023-02-07T06:53:10.210Z,822.09
2023-02-07T06:54:10.212Z,822.09
2023-02-07T06:55:10.198Z,822.08
2023-02-07T06:56:10.212Z,822.06
2023-02-07T06:57:10.196Z,822.09
2023-02-07T06:58:10.219Z,822.06
2023-02-07T06:59:10.197Z,822.15
2023-02-07T07:00:10.190Z,822.14
2023-02-07T07:01:10.199Z,822.17
2023-02-07T07:02:10.189Z,822.18
2023-02-07T07:03:10.193Z,822.22
2023-02-07T07:04:10.201Z,822.18
2023-02-07T07:05:10.191Z,822.23
2023-02-07T07:06:10.223Z,822.23
2023-02-07T07:07:10.191Z,822.20
2023-02-07T07:08:10.186Z,822.19
2023-02-07T07:09:10.191Z,822.15
2023-02-07T07:10:10.271Z,822.18
2023-02-07T07:11:10.195Z,822.26
2023-02-07T07:12:10.186Z,822.23
2023-02-07T07:13:10.187Z,822.17
2023-02-07T07:14:10.212Z,822.19
2023-02-07T07:15:10.188Z,822.16
2023-02-07T07:16:10.235Z,822.19
2023-02-07T07:17:10.184Z,822.20
2023-02-07T07:18:10.192Z,822.26
2023-02-07T07:19:10.197Z,822.26
2023-02-07T07:20:10.193Z,822.26
2023-02-07T07:21:10.183Z,822.25
2023-02-07T07:22:10.188Z,822.30
2023-02-07T07:23:10.182Z,822.32
2023-02-07T07:24:10.184Z,822.34
2023-02-07T07:25:10.178Z,822.33
2023-02-07T07:26:10.185Z,822.38
2023-02-07T07:27:10.176Z,822.45
2023-02-07T07:28:10.223Z,822.43
2023-02-07T07:29:10.176Z,822.44
2023-02-07T07:30:10.746Z,822.47
2023-02-07T07:31:10.240Z,822.50
2023-02-07T07:32:10.177Z,822.53
2023-02-07T07:33:10.181Z,822.52
2023-02-07T07:34:10.175Z,822.56
2023-02-07T07:35:10.175Z,822.58
2023-02-07T07:36:10.176Z,822.60
2023-02-07T07:37:10.170Z,822.60
2023-02-07T07:38:10.172Z,822.61
2023-02-07T07:39:10.166Z,822.64
2023-02-07T07:40:10.188Z,822.63
2023-02-07T07:41:10.166Z,822.60
2023-02-07T07:42:10.166Z,822.63
2023-02-07T07:43:10.173Z,822.59
2023-02-07T07:44:10.166Z,822.62
2023-02-07T07:45:10.189Z,822.63
2023-02-07T07:46:10.200Z,822.61
2023-02-07T07:47:10.161Z,822.60
2023-02-07T07:48:10.201Z,822.66
2023-02-07T07:49:10.158Z,822.70
2023-02-07T07:50:10.160Z,822.72
2023-02-07T07:51:10.167Z,822.73
2023-02-07T07:52:10.160Z,822.67
2023-02-07T07:53:10.155Z,822.67
2023-02-07T07:54:10.159Z,822.63
2023-02-07T07:55:10.164Z,822.65
2023-02-07T07:56:10.166Z,822.69
2023-02-07T07:57:10.162Z,822.71
2023-02-07T07:58:10.158Z,822.68
2023-02-07T07:59:20.097Z,822.70
2023-02-07T08:00:10.156Z,822.72
2023-02-07T08:01:10.232Z,822.72
2023-02-07T08:02:10.171Z,822.71
2023-02-07T08:03:10.150Z,822.73
2023-02-07T08:04:10.208Z,822.69
2023-02-07T08:05:12.553Z,822.70
2023-02-07T08:06:10.173Z,822.73
2023-02-07T08:07:10.169Z,822.79
2023-02-07T08:08:10.158Z,822.82
2023-02-07T08:09:10.150Z,822.82
2023-02-07T08:10:10.162Z,822.83
2023-02-07T08:11:10.151Z,822.81
2023-02-07T08:12:10.153Z,822.80
2023-02-07T08:13:10.151Z,822.82
2023-02-07T08:14:10.151Z,822.85
2023-02-07T08:15:10.144Z,822.88
2023-02-07T08:16:10.172Z,822.91
2023-02-07T08:17:10.160Z,822.91
2023-02-07T08:18:10.175Z,822.92
2023-02-07T08:19:10.167Z,822.93
2023-02-07T08:20:10.155Z,822.94
2023-02-07T08:21:10.148Z,822.93
2023-02-07T08:22:10.156Z,823.02
2023-02-07T08:23:10.151Z,823.04
2023-02-07T08:24:10.153Z,823.04
2023-02-07T08:25:10.144Z,823.04
2023-02-07T08:26:10.150Z,823.03
2023-02-07T08:27:10.144Z,823.04
2023-02-07T08:28:10.228Z,823.10
2023-02-07T08:29:10.143Z,823.08
2023-02-07T08:30:10.159Z,823.12
2023-02-07T08:31:10.150Z,823.12
2023-02-07T08:32:10.171Z,823.09
2023-02-07T08:33:10.145Z,823.14
2023-02-07T08:34:10.167Z,823.15
2023-02-07T08:35:10.147Z,823.19
2023-02-07T08:36:10.152Z,823.20
2023-02-07T08:37:10.149Z,823.20
2023-02-07T08:38:10.149Z,823.23
2023-02-07T08:39:10.147Z,823.23
2023-02-07T08:40:10.153Z,823.25
2023-02-07T08:41:10.145Z,823.23
2023-02-07T08:42:10.148Z,823.24
2023-02-07T08:43:10.146Z,823.22
2023-02-07T08:44:10.151Z,823.25
2023-02-07T08:45:10.183Z,823.30
2023-02-07T08:46:10.306Z,823.31
2023-02-07T08:47:10.155Z,823.32
2023-02-07T08:48:10.157Z,823.28
2023-02-07T08:49:10.154Z,823.29
2023-02-07T08:50:10.168Z,823.30
2023-02-07T08:51:10.148Z,823.30
2023-02-07T08:52:10.152Z,823.34
2023-02-07T08:53:10.152Z,823.34
2023-02-07T08:54:10.164Z,823.41
2023-02-07T08:55:10.158Z,823.35
2023-02-07T08:56:10.155Z,823.35
2023-02-07T08:57:10.155Z,823.40
2023-02-07T08:58:10.157Z,823.37
2023-02-07T08:59:10.156Z,823.36
2023-02-07T09:00:10.157Z,823.36
2023-02-07T09:01:10.169Z,823.35
2023-02-07T09:02:10.186Z,823.34
2023-02-07T09:03:10.161Z,823.40
2023-02-07T09:04:10.165Z,823.42
2023-02-07T09:05:10.158Z,823.41
2023-02-07T09:06:10.205Z,823.41
2023-02-07T09:07:10.161Z,823.44
2023-02-07T09:08:10.169Z,823.43
2023-02-07T09:09:10.162Z,823.38
2023-02-07T09:10:10.165Z,823.38
2023-02-07T09:11:10.218Z,823.41
2023-02-07T09:12:10.169Z,823.41
2023-02-07T09:13:10.169Z,823.36
2023-02-07T09:14:10.267Z,823.37
2023-02-07T09:15:10.169Z,823.36
2023-02-07T09:16:10.179Z,823.37
2023-02-07T09:17:10.168Z,823.38
2023-02-07T09:18:10.175Z,823.39
2023-02-07T09:19:10.172Z,823.37
2023-02-07T09:20:10.172Z,823.37
2023-02-07T09:21:10.177Z,823.41
2023-02-07T09:22:10.215Z,823.40
2023-02-07T09:23:10.175Z,823.44
2023-02-07T09:24:10.188Z,823.46
2023-02-07T09:25:10.181Z,823.43
2023-02-07T09:26:10.182Z,823.43
2023-02-07T09:27:10.186Z,823.45
2023-02-07T09:28:10.290Z,823.47
2023-02-07T09:29:10.190Z,823.46
2023-02-07T09:30:10.216Z,823.44
2023-02-07T09:31:10.290Z,823.45
2023-02-07T09:32:10.193Z,823.43
2023-02-07T09:33:10.188Z,823.41
2023-02-07T09:34:10.194Z,823.43
2023-02-07T09:35:10.192Z,823.43
2023-02-07T09:36:10.194Z,823.41
2023-02-07T09:37:10.197Z,823.45
2023-02-07T09:38:10.329Z,823.42
2023-02-07T09:39:10.201Z,823.44
2023-02-07T09:40:10.199Z,823.42
2023-02-07T09:41:10.200Z,823.40
2023-02-07T09:42:10.208Z,823.43
2023-02-07T09:43:10.359Z,823.43
2023-02-07T09:44:10.410Z,823.44
2023-02-07T09:45:10.403Z,823.46
2023-02-07T09:46:10.282Z,823.43
2023-02-07T09:47:10.211Z,823.47
2023-02-07T09:48:11.149Z,823.50
2023-02-07T09:49:10.209Z,823.52
2023-02-07T09:50:10.237Z,823.56
2023-02-07T09:51:10.215Z,823.58
2023-02-07T09:52:10.219Z,823.54
2023-02-07T09:53:10.217Z,823.54
2023-02-07T09:54:10.246Z,823.49
2023-02-07T09:55:10.220Z,823.48
2023-02-07T09:56:10.238Z,823.53
2023-02-07T09:57:10.236Z,823.57
2023-02-07T09:58:10.229Z,823.56
2023-02-07T09:59:10.244Z,823.51
2023-02-07T10:00:10.284Z,823.56
2023-02-07T10:01:10.273Z,823.51
2023-02-07T10:02:10.253Z,823.52
2023-02-07T10:03:10.235Z,823.56
2023-02-07T10:04:10.236Z,823.55
2023-02-07T10:05:10.238Z,823.55
2023-02-07T10:06:18.316Z,823.56
2023-02-07T10:07:10.246Z,823.53
2023-02-07T10:08:10.246Z,823.56
2023-02-07T10:09:10.245Z,823.50
2023-02-07T10:10:10.266Z,823.51
2023-02-07T10:11:10.602Z,823.52
2023-02-07T10:12:10.263Z,823.50
2023-02-07T10:13:10.253Z,823.50
2023-02-07T10:14:10.277Z,823.50
2023-02-07T10:15:10.263Z,823.52
2023-02-07T10:16:10.545Z,823.45
2023-02-07T10:17:14.071Z,823.48
2023-02-07T10:18:10.271Z,823.49
2023-02-07T10:19:10.280Z,823.54
2023-02-07T10:20:10.288Z,823.56
2023-02-07T10:21:10.278Z,823.55
2023-02-07T10:22:10.280Z,823.56
2023-02-07T10:23:10.296Z,823.52
2023-02-07T10:24:10.325Z,823.49
2023-02-07T10:25:10.316Z,823.51
2023-02-07T10:26:10.312Z,823.48
2023-02-07T10:27:10.306Z,823.53
2023-02-07T10:28:10.330Z,823.48
2023-02-07T10:29:10.303Z,823.51
2023-02-07T10:30:10.305Z,823.49
2023-02-07T10:31:10.446Z,823.49
2023-02-07T10:32:10.312Z,823.49
2023-02-07T10:33:10.324Z,823.46
2023-02-07T10:34:10.336Z,823.40
2023-02-07T10:35:10.322Z,823.40
2023-02-07T10:36:10.334Z,823.37
2023-02-07T10:37:10.329Z,823.37
2023-02-07T10:38:10.347Z,823.40
2023-02-07T10:39:10.336Z,823.43
2023-02-07T10:40:10.346Z,823.33
2023-02-07T10:41:10.343Z,823.33
2023-02-07T10:42:10.372Z,823.35
2023-02-07T10:43:10.404Z,823.33
2023-02-07T10:44:10.466Z,823.33
2023-02-07T10:45:10.360Z,823.28
2023-02-07T10:46:10.430Z,823.29
2023-02-07T10:47:10.365Z,823.26
2023-02-07T10:48:10.379Z,823.28
2023-02-07T10:49:10.374Z,823.24
2023-02-07T10:50:12.044Z,823.31
2023-02-07T10:51:10.399Z,823.30
2023-02-07T10:52:10.392Z,823.24
2023-02-07T10:53:10.390Z,823.29
2023-02-07T10:54:10.408Z,823.31
2023-02-07T10:55:10.404Z,823.23
2023-02-07T10:56:10.410Z,823.27
2023-02-07T10:57:10.407Z,823.27
2023-02-07T10:58:22.486Z,823.25
2023-02-07T10:59:10.415Z,823.25
2023-02-07T11:00:10.423Z,823.27
2023-02-07T11:01:10.433Z,823.24
2023-02-07T11:02:10.432Z,823.24
2023-02-07T11:03:10.435Z,823.17
2023-02-07T11:04:10.439Z,823.17
2023-02-07T11:05:10.477Z,823.18
2023-02-07T11:06:10.445Z,823.15
2023-02-07T11:07:10.463Z,823.16
2023-02-07T11:08:10.457Z,823.19
2023-02-07T11:09:10.460Z,823.13
2023-02-07T11:10:10.467Z,823.14
2023-02-07T11:11:10.466Z,823.14
2023-02-07T11:12:10.491Z,823.16
2023-02-07T11:13:10.474Z,823.12
2023-02-07T11:14:10.510Z,823.11
2023-02-07T11:15:10.486Z,823.09
2023-02-07T11:16:10.531Z,823.11
2023-02-07T11:17:10.498Z,823.07
2023-02-07T11:18:10.500Z,822.99
2023-02-07T11:19:10.505Z,823.03
2023-02-07T11:20:10.507Z,823.02
2023-02-07T11:21:10.510Z,823.04
2023-02-07T11:22:10.519Z,823.02
2023-02-07T11:23:10.519Z,823.03
2023-02-07T11:24:10.525Z,823.04
2023-02-07T11:25:10.537Z,823.01
2023-02-07T11:26:10.535Z,823.04
2023-02-07T11:27:10.543Z,823.03
2023-02-07T11:28:10.603Z,823.01
2023-02-07T11:29:10.547Z,823.01
2023-02-07T11:30:10.568Z,823.01
2023-02-07T11:31:10.718Z,822.92
2023-02-07T11:32:10.566Z,822.96
2023-02-07T11:33:10.566Z,822.89
2023-02-07T11:34:10.568Z,822.96
2023-02-07T11:35:10.599Z,822.94
2023-02-07T11:36:10.591Z,822.97
2023-02-07T11:37:10.585Z,822.94
2023-02-07T11:38:10.597Z,822.93
2023-02-07T11:39:10.592Z,822.95
2023-02-07T11:40:10.611Z,822.95
2023-02-07T11:41:10.607Z,822.97
2023-02-07T11:42:10.609Z,823.04
2023-02-07T11:43:10.620Z,823.03
2023-02-07T11:44:10.614Z,823.00
2023-02-07T11:45:10.627Z,823.01
2023-02-07T11:46:10.782Z,823.01
2023-02-07T11:47:10.631Z,822.93
2023-02-07T11:48:10.634Z,822.99
2023-02-07T11:49:10.642Z,822.98
2023-02-07T11:50:10.645Z,823.01
2023-02-07T11:51:10.654Z,823.02
2023-02-07T11:52:10.656Z,823.02
2023-02-07T11:53:10.664Z,823.02
2023-02-07T11:54:10.667Z,823.05
2023-02-07T11:55:10.679Z,823.06
2023-02-07T11:56:10.819Z,823.05
2023-02-07T11:57:10.696Z,823.06
2023-02-07T11:58:10.692Z,823.11
2023-02-07T11:59:10.703Z,823.11
2023-02-07T12:00:10.706Z,823.07
2023-02-07T12:01:10.711Z,823.07
2023-02-07T12:02:10.795Z,823.04
2023-02-07T12:03:10.731Z,823.02
2023-02-07T12:04:10.723Z,823.00
2023-02-07T12:05:10.756Z,823.06
2023-02-07T12:06:10.738Z,822.95
2023-02-07T12:07:10.755Z,822.97
2023-02-07T12:08:10.758Z,822.96
2023-02-07T12:09:10.769Z,822.96
2023-02-07T12:10:10.771Z,822.90
2023-02-07T12:11:10.765Z,822.89
2023-02-07T12:12:10.776Z,822.85
2023-02-07T12:13:10.786Z,822.89
2023-02-07T12:14:10.776Z,822.87
2023-02-07T12:15:10.783Z,822.92
2023-02-07T12:16:10.807Z,822.93
2023-02-07T12:17:10.801Z,822.94
2023-02-07T12:18:10.886Z,822.90
2023-02-07T12:19:10.808Z,822.88
2023-02-07T12:20:10.806Z,822.84
2023-02-07T12:21:10.819Z,822.86
2023-02-07T12:22:10.818Z,822.81
2023-02-07T12:23:35.565Z,822.79
2023-02-07T12:24:10.829Z,822.78
2023-02-07T12:25:10.835Z,822.76
2023-02-07T12:26:10.838Z,822.82
2023-02-07T12:27:10.847Z,822.82
2023-02-07T12:28:10.873Z,822.79